sensor_id;sensor_type;location;lat;lon;timestamp;P1;durP1;ratioP1;P2;durP2;ratioP2
39452;SDS011;25154;-33.684;151.102;2022-08-21T00:04:11;3.95;;;1.30;;
39452;SDS011;25154;-33.684;151.102;2022-08-21T00:09:14;6.55;;;1.42;;
39452;SDS011;25154;-33.684;151.102;2022-08-21T00:14:16;7.80;;;1.35;;
39452;SDS011;25154;-33.684;151.102;2022-08-21T00:19:19;8.70;;;1.20;;
39452;SDS011;25154;-33.684;151.102;2022-08-21T00:24:25;8.00;;;1.40;;
39452;SDS011;25154;-33.684;151.102;2022-08-21T00:29:28;7.75;;;1.30;;
39452;SDS011;25154;-33.684;151.102;2022-08-21T00:34:31;6.55;;;1.20;;
39452;SDS011;25154;-33.684;151.102;2022-08-21T00:39:33;4.38;;;1.08;;
39452;SDS011;25154;-33.684;151.102;2022-08-21T00:44:36;4.32;;;1.23;;
39452;SDS011;25154;-33.684;151.102;2022-08-21T00:49:39;4.57;;;1.13;;
39452;SDS011;25154;-33.684;151.102;2022-08-21T00:54:43;4.80;;;1.10;;
39452;SDS011;25154;-33.684;151.102;2022-08-21T00:59:47;4.32;;;1.17;;
39452;SDS011;25154;-33.684;151.102;2022-08-21T01:04:54;3.22;;;0.93;;
39452;SDS011;25154;-33.684;151.102;2022-08-21T01:09:57;4.25;;;1.00;;
39452;SDS011;25154;-33.684;151.102;2022-08-21T01:15:03;4.65;;;1.02;;
39452;SDS011;25154;-33.684;151.102;2022-08-21T01:20:09;3.03;;;1.05;;
39452;SDS011;25154;-33.684;151.102;2022-08-21T01:25:13;2.50;;;1.15;;
39452;SDS011;25154;-33.684;151.102;2022-08-21T01:30:24;2.08;;;0.90;;
39452;SDS011;25154;-33.684;151.102;2022-08-21T01:35:32;3.33;;;0.98;;
39452;SDS011;25154;-33.684;151.102;2022-08-21T01:40:34;3.83;;;1.00;;
39452;SDS011;25154;-33.684;151.102;2022-08-21T01:45:37;4.63;;;1.08;;
39452;SDS011;25154;-33.684;151.102;2022-08-21T01:50:39;6.00;;;1.10;;
39452;SDS011;25154;-33.684;151.102;2022-08-21T01:55:42;3.47;;;0.93;;
39452;SDS011;25154;-33.684;151.102;2022-08-21T02:00:45;3.80;;;0.90;;
39452;SDS011;25154;-33.684;151.102;2022-08-21T02:05:48;2.50;;;0.98;;
39452;SDS011;25154;-33.684;151.102;2022-08-21T02:10:52;3.85;;;1.40;;
39452;SDS011;25154;-33.684;151.102;2022-08-21T02:15:56;2.65;;;0.85;;
39452;SDS011;25154;-33.684;151.102;2022-08-21T02:20:58;3.00;;;1.15;;
39452;SDS011;25154;-33.684;151.102;2022-08-21T02:26:01;5.47;;;1.30;;
39452;SDS011;25154;-33.684;151.102;2022-08-21T02:31:05;2.17;;;1.00;;
39452;SDS011;25154;-33.684;151.102;2022-08-21T02:36:08;4.85;;;1.20;;
39452;SDS011;25154;-33.684;151.102;2022-08-21T02:41:15;3.92;;;1.20;;
39452;SDS011;25154;-33.684;151.102;2022-08-21T02:46:20;1.75;;;0.80;;
39452;SDS011;25154;-33.684;151.102;2022-08-21T02:51:24;5.65;;;1.20;;
39452;SDS011;25154;-33.684;151.102;2022-08-21T02:56:26;4.53;;;1.17;;
39452;SDS011;25154;-33.684;151.102;2022-08-21T03:01:30;2.15;;;0.80;;
39452;SDS011;25154;-33.684;151.102;2022-08-21T03:06:34;3.67;;;0.93;;
39452;SDS011;25154;-33.684;151.102;2022-08-21T03:11:38;2.05;;;0.88;;
39452;SDS011;25154;-33.684;151.102;2022-08-21T03:16:41;3.22;;;1.20;;
39452;SDS011;25154;-33.684;151.102;2022-08-21T03:21:46;3.50;;;1.30;;
39452;SDS011;25154;-33.684;151.102;2022-08-21T03:26:49;4.05;;;0.90;;
39452;SDS011;25154;-33.684;151.102;2022-08-21T03:31:53;1.75;;;0.90;;
39452;SDS011;25154;-33.684;151.102;2022-08-21T03:36:57;5.22;;;1.75;;
39452;SDS011;25154;-33.684;151.102;2022-08-21T03:41:59;1.98;;;0.90;;
39452;SDS011;25154;-33.684;151.102;2022-08-21T03:47:02;4.07;;;1.20;;
39452;SDS011;25154;-33.684;151.102;2022-08-21T03:52:04;2.08;;;0.90;;
39452;SDS011;25154;-33.684;151.102;2022-08-21T03:57:07;2.22;;;0.93;;
39452;SDS011;25154;-33.684;151.102;2022-08-21T04:02:11;1.17;;;0.80;;
39452;SDS011;25154;-33.684;151.102;2022-08-21T04:07:17;3.22;;;0.90;;
39452;SDS011;25154;-33.684;151.102;2022-08-21T04:12:20;1.67;;;0.88;;
39452;SDS011;25154;-33.684;151.102;2022-08-21T04:17:22;1.80;;;0.90;;
39452;SDS011;25154;-33.684;151.102;2022-08-21T04:22:25;1.63;;;0.90;;
39452;SDS011;25154;-33.684;151.102;2022-08-21T04:27:27;3.65;;;1.17;;
39452;SDS011;25154;-33.684;151.102;2022-08-21T04:32:29;2.17;;;0.80;;
39452;SDS011;25154;-33.684;151.102;2022-08-21T04:37:32;1.73;;;0.77;;
39452;SDS011;25154;-33.684;151.102;2022-08-21T04:42:40;2.63;;;0.90;;
39452;SDS011;25154;-33.684;151.102;2022-08-21T04:47:54;1.02;;;0.60;;
39452;SDS011;25154;-33.684;151.102;2022-08-21T04:52:57;4.55;;;0.90;;
39452;SDS011;25154;-33.684;151.102;2022-08-21T04:58:01;3.78;;;1.05;;
39452;SDS011;25154;-33.684;151.102;2022-08-21T05:03:03;4.05;;;0.93;;
39452;SDS011;25154;-33.684;151.102;2022-08-21T05:08:11;2.72;;;0.90;;
39452;SDS011;25154;-33.684;151.102;2022-08-21T05:13:16;2.13;;;0.70;;
39452;SDS011;25154;-33.684;151.102;2022-08-21T05:18:19;1.67;;;0.70;;
39452;SDS011;25154;-33.684;151.102;2022-08-21T05:23:22;2.20;;;0.90;;
39452;SDS011;25154;-33.684;151.102;2022-08-21T05:28:25;3.40;;;1.00;;
39452;SDS011;25154;-33.684;151.102;2022-08-21T05:33:27;2.33;;;0.70;;
39452;SDS011;25154;-33.684;151.102;2022-08-21T05:38:30;2.95;;;1.00;;
39452;SDS011;25154;-33.684;151.102;2022-08-21T05:43:32;1.85;;;0.75;;
39452;SDS011;25154;-33.684;151.102;2022-08-21T05:48:36;2.35;;;0.77;;
39452;SDS011;25154;-33.684;151.102;2022-08-21T05:53:39;2.38;;;0.68;;
39452;SDS011;25154;-33.684;151.102;2022-08-21T05:58:45;2.00;;;0.80;;
39452;SDS011;25154;-33.684;151.102;2022-08-21T06:03:48;2.78;;;1.20;;
39452;SDS011;25154;-33.684;151.102;2022-08-21T06:08:50;3.20;;;1.30;;
39452;SDS011;25154;-33.684;151.102;2022-08-21T06:13:53;1.95;;;0.63;;
39452;SDS011;25154;-33.684;151.102;2022-08-21T06:18:56;2.70;;;0.85;;
39452;SDS011;25154;-33.684;151.102;2022-08-21T06:23:58;2.28;;;0.90;;
39452;SDS011;25154;-33.684;151.102;2022-08-21T06:29:00;3.92;;;0.90;;
39452;SDS011;25154;-33.684;151.102;2022-08-21T06:34:03;5.45;;;1.50;;
39452;SDS011;25154;-33.684;151.102;2022-08-21T06:39:05;3.88;;;1.20;;
39452;SDS011;25154;-33.684;151.102;2022-08-21T06:44:08;3.90;;;1.50;;
39452;SDS011;25154;-33.684;151.102;2022-08-21T06:49:10;9.98;;;4.15;;
39452;SDS011;25154;-33.684;151.102;2022-08-21T06:54:13;7.25;;;2.40;;
39452;SDS011;25154;-33.684;151.102;2022-08-21T06:59:15;8.50;;;4.35;;
39452;SDS011;25154;-33.684;151.102;2022-08-21T07:04:18;3.90;;;1.30;;
39452;SDS011;25154;-33.684;151.102;2022-08-21T07:09:20;9.85;;;2.17;;
39452;SDS011;25154;-33.684;151.102;2022-08-21T07:14:23;4.07;;;1.38;;
39452;SDS011;25154;-33.684;151.102;2022-08-21T07:19:25;5.40;;;1.33;;
39452;SDS011;25154;-33.684;151.102;2022-08-21T07:24:28;6.13;;;1.40;;
39452;SDS011;25154;-33.684;151.102;2022-08-21T07:29:30;5.30;;;1.20;;
39452;SDS011;25154;-33.684;151.102;2022-08-21T07:34:33;5.90;;;1.30;;
39452;SDS011;25154;-33.684;151.102;2022-08-21T07:39:35;5.10;;;1.40;;
39452;SDS011;25154;-33.684;151.102;2022-08-21T07:44:37;4.28;;;1.30;;
39452;SDS011;25154;-33.684;151.102;2022-08-21T07:49:40;6.90;;;1.55;;
39452;SDS011;25154;-33.684;151.102;2022-08-21T07:54:42;7.63;;;1.60;;
39452;SDS011;25154;-33.684;151.102;2022-08-21T07:59:44;7.45;;;1.80;;
39452;SDS011;25154;-33.684;151.102;2022-08-21T08:04:47;7.95;;;2.38;;
39452;SDS011;25154;-33.684;151.102;2022-08-21T08:09:49;10.18;;;2.58;;
39452;SDS011;25154;-33.684;151.102;2022-08-21T08:14:52;10.52;;;2.90;;
39452;SDS011;25154;-33.684;151.102;2022-08-21T08:19:54;16.27;;;4.35;;
39452;SDS011;25154;-33.684;151.102;2022-08-21T08:24:57;8.82;;;2.47;;
39452;SDS011;25154;-33.684;151.102;2022-08-21T08:30:04;9.05;;;2.78;;
39452;SDS011;25154;-33.684;151.102;2022-08-21T08:35:20;5.70;;;2.13;;
39452;SDS011;25154;-33.684;151.102;2022-08-21T08:45:39;9.45;;;1.88;;
39452;SDS011;25154;-33.684;151.102;2022-08-21T08:50:47;5.37;;;1.93;;
39452;SDS011;25154;-33.684;151.102;2022-08-21T08:55:57;6.90;;;2.17;;
39452;SDS011;25154;-33.684;151.102;2022-08-21T09:01:03;5.13;;;1.92;;
39452;SDS011;25154;-33.684;151.102;2022-08-21T09:06:25;6.95;;;1.95;;
39452;SDS011;25154;-33.684;151.102;2022-08-21T09:12:09;9.05;;;1.90;;
39452;SDS011;25154;-33.684;151.102;2022-08-21T09:27:38;7.70;;;1.80;;
39452;SDS011;25154;-33.684;151.102;2022-08-21T09:32:41;6.07;;;1.80;;
39452;SDS011;25154;-33.684;151.102;2022-08-21T09:37:49;6.93;;;1.80;;
39452;SDS011;25154;-33.684;151.102;2022-08-21T09:43:01;6.38;;;1.95;;
39452;SDS011;25154;-33.684;151.102;2022-08-21T09:53:23;4.68;;;1.27;;
39452;SDS011;25154;-33.684;151.102;2022-08-21T09:58:32;8.65;;;2.05;;
39452;SDS011;25154;-33.684;151.102;2022-08-21T10:03:37;7.25;;;1.85;;
39452;SDS011;25154;-33.684;151.102;2022-08-21T10:08:40;4.60;;;1.40;;
39452;SDS011;25154;-33.684;151.102;2022-08-21T10:13:49;5.40;;;1.30;;
39452;SDS011;25154;-33.684;151.102;2022-08-21T10:35:09;9.35;;;1.60;;
39452;SDS011;25154;-33.684;151.102;2022-08-21T10:51:16;4.45;;;1.65;;
39452;SDS011;25154;-33.684;151.102;2022-08-21T10:56:31;5.18;;;1.85;;
39452;SDS011;25154;-33.684;151.102;2022-08-21T11:01:44;7.03;;;2.42;;
39452;SDS011;25154;-33.684;151.102;2022-08-21T11:06:59;5.43;;;1.90;;
39452;SDS011;25154;-33.684;151.102;2022-08-21T11:17:20;9.27;;;2.00;;
39452;SDS011;25154;-33.684;151.102;2022-08-21T11:27:52;8.27;;;1.75;;
39452;SDS011;25154;-33.684;151.102;2022-08-21T11:38:28;5.47;;;1.83;;
39452;SDS011;25154;-33.684;151.102;2022-08-21T11:43:45;8.15;;;1.50;;
39452;SDS011;25154;-33.684;151.102;2022-08-21T11:59:39;3.50;;;1.33;;
39452;SDS011;25154;-33.684;151.102;2022-08-21T12:05:40;9.67;;;1.70;;
39452;SDS011;25154;-33.684;151.102;2022-08-21T12:10:30;11.10;;;1.60;;
39452;SDS011;25154;-33.684;151.102;2022-08-21T12:15:35;9.20;;;1.90;;
39452;SDS011;25154;-33.684;151.102;2022-08-21T12:20:39;3.15;;;1.33;;
39452;SDS011;25154;-33.684;151.102;2022-08-21T12:26:02;8.32;;;1.65;;
39452;SDS011;25154;-33.684;151.102;2022-08-21T12:31:18;6.15;;;1.70;;
39452;SDS011;25154;-33.684;151.102;2022-08-21T12:36:39;11.07;;;1.75;;
39452;SDS011;25154;-33.684;151.102;2022-08-21T12:47:04;3.83;;;1.50;;
39452;SDS011;25154;-33.684;151.102;2022-08-21T12:52:34;6.95;;;2.85;;
39452;SDS011;25154;-33.684;151.102;2022-08-21T12:57:42;11.73;;;2.80;;
39452;SDS011;25154;-33.684;151.102;2022-08-21T13:02:46;14.18;;;4.68;;
39452;SDS011;25154;-33.684;151.102;2022-08-21T13:07:51;8.50;;;2.80;;
39452;SDS011;25154;-33.684;151.102;2022-08-21T13:12:58;8.90;;;2.60;;
39452;SDS011;25154;-33.684;151.102;2022-08-21T13:18:03;7.80;;;3.25;;
39452;SDS011;25154;-33.684;151.102;2022-08-21T13:23:27;10.52;;;3.72;;
39452;SDS011;25154;-33.684;151.102;2022-08-21T13:28:34;10.02;;;4.50;;
39452;SDS011;25154;-33.684;151.102;2022-08-21T13:33:38;16.75;;;5.07;;
39452;SDS011;25154;-33.684;151.102;2022-08-21T13:38:42;15.75;;;7.53;;
39452;SDS011;25154;-33.684;151.102;2022-08-21T13:43:48;18.88;;;9.20;;
39452;SDS011;25154;-33.684;151.102;2022-08-21T13:48:58;18.95;;;9.18;;
39452;SDS011;25154;-33.684;151.102;2022-08-21T13:54:25;23.80;;;11.57;;
39452;SDS011;25154;-33.684;151.102;2022-08-21T13:59:40;20.05;;;10.50;;
39452;SDS011;25154;-33.684;151.102;2022-08-21T14:10:03;27.88;;;15.10;;
39452;SDS011;25154;-33.684;151.102;2022-08-21T14:15:07;25.13;;;13.63;;
39452;SDS011;25154;-33.684;151.102;2022-08-21T14:20:28;21.90;;;11.55;;
39452;SDS011;25154;-33.684;151.102;2022-08-21T14:25:39;26.17;;;12.40;;
39452;SDS011;25154;-33.684;151.102;2022-08-21T14:30:44;31.70;;;12.52;;
39452;SDS011;25154;-33.684;151.102;2022-08-21T14:35:46;23.33;;;11.82;;
39452;SDS011;25154;-33.684;151.102;2022-08-21T14:40:49;20.60;;;10.20;;
39452;SDS011;25154;-33.684;151.102;2022-08-21T14:45:57;16.85;;;8.73;;
39452;SDS011;25154;-33.684;151.102;2022-08-21T14:51:01;14.25;;;7.00;;
39452;SDS011;25154;-33.684;151.102;2022-08-21T14:56:04;11.27;;;6.65;;
39452;SDS011;25154;-33.684;151.102;2022-08-21T15:01:11;18.17;;;6.03;;
39452;SDS011;25154;-33.684;151.102;2022-08-21T15:06:16;11.55;;;5.95;;
39452;SDS011;25154;-33.684;151.102;2022-08-21T15:11:20;12.23;;;5.10;;
39452;SDS011;25154;-33.684;151.102;2022-08-21T15:16:24;11.65;;;4.88;;
39452;SDS011;25154;-33.684;151.102;2022-08-21T15:21:27;12.70;;;4.50;;
39452;SDS011;25154;-33.684;151.102;2022-08-21T15:26:30;12.77;;;4.43;;
39452;SDS011;25154;-33.684;151.102;2022-08-21T15:31:33;8.23;;;3.85;;
39452;SDS011;25154;-33.684;151.102;2022-08-21T15:36:36;8.38;;;4.10;;
39452;SDS011;25154;-33.684;151.102;2022-08-21T15:41:39;12.45;;;4.43;;
39452;SDS011;25154;-33.684;151.102;2022-08-21T15:46:41;8.60;;;4.50;;
39452;SDS011;25154;-33.684;151.102;2022-08-21T15:51:45;11.93;;;3.97;;
39452;SDS011;25154;-33.684;151.102;2022-08-21T15:56:47;8.10;;;3.20;;
39452;SDS011;25154;-33.684;151.102;2022-08-21T16:01:52;11.18;;;3.22;;
39452;SDS011;25154;-33.684;151.102;2022-08-21T16:06:54;9.57;;;2.92;;
39452;SDS011;25154;-33.684;151.102;2022-08-21T16:11:58;12.48;;;3.08;;
39452;SDS011;25154;-33.684;151.102;2022-08-21T16:17:01;12.35;;;4.90;;
39452;SDS011;25154;-33.684;151.102;2022-08-21T16:22:08;12.68;;;4.50;;
39452;SDS011;25154;-33.684;151.102;2022-08-21T16:27:11;10.35;;;3.25;;
39452;SDS011;25154;-33.684;151.102;2022-08-21T16:32:14;9.05;;;2.65;;
39452;SDS011;25154;-33.684;151.102;2022-08-21T16:37:16;10.50;;;4.65;;
39452;SDS011;25154;-33.684;151.102;2022-08-21T16:42:20;11.25;;;4.68;;
39452;SDS011;25154;-33.684;151.102;2022-08-21T16:47:25;7.22;;;3.70;;
39452;SDS011;25154;-33.684;151.102;2022-08-21T16:52:27;9.77;;;2.95;;
39452;SDS011;25154;-33.684;151.102;2022-08-21T16:57:30;12.77;;;2.85;;
39452;SDS011;25154;-33.684;151.102;2022-08-21T17:02:34;10.73;;;3.35;;
39452;SDS011;25154;-33.684;151.102;2022-08-21T17:07:39;9.65;;;3.25;;
39452;SDS011;25154;-33.684;151.102;2022-08-21T17:12:42;6.03;;;2.28;;
39452;SDS011;25154;-33.684;151.102;2022-08-21T17:17:50;8.90;;;2.50;;
39452;SDS011;25154;-33.684;151.102;2022-08-21T17:22:52;8.27;;;2.95;;
39452;SDS011;25154;-33.684;151.102;2022-08-21T17:27:55;9.07;;;2.78;;
39452;SDS011;25154;-33.684;151.102;2022-08-21T17:32:59;7.80;;;2.95;;
39452;SDS011;25154;-33.684;151.102;2022-08-21T17:38:02;7.90;;;2.47;;
39452;SDS011;25154;-33.684;151.102;2022-08-21T17:43:05;9.90;;;3.22;;
39452;SDS011;25154;-33.684;151.102;2022-08-21T17:48:09;11.60;;;3.10;;
39452;SDS011;25154;-33.684;151.102;2022-08-21T17:53:12;7.13;;;2.67;;
39452;SDS011;25154;-33.684;151.102;2022-08-21T17:58:15;6.10;;;2.13;;
39452;SDS011;25154;-33.684;151.102;2022-08-21T18:03:19;18.58;;;3.05;;
39452;SDS011;25154;-33.684;151.102;2022-08-21T18:08:22;8.43;;;2.45;;
39452;SDS011;25154;-33.684;151.102;2022-08-21T18:13:30;9.27;;;2.22;;
39452;SDS011;25154;-33.684;151.102;2022-08-21T18:18:39;5.50;;;2.05;;
39452;SDS011;25154;-33.684;151.102;2022-08-21T18:23:42;7.68;;;2.13;;
39452;SDS011;25154;-33.684;151.102;2022-08-21T18:28:45;6.20;;;2.10;;
39452;SDS011;25154;-33.684;151.102;2022-08-21T18:33:47;5.45;;;1.85;;
39452;SDS011;25154;-33.684;151.102;2022-08-21T18:38:50;8.45;;;2.20;;
39452;SDS011;25154;-33.684;151.102;2022-08-21T18:43:53;8.57;;;2.00;;
39452;SDS011;25154;-33.684;151.102;2022-08-21T18:48:56;6.90;;;2.28;;
39452;SDS011;25154;-33.684;151.102;2022-08-21T18:53:58;8.48;;;2.38;;
39452;SDS011;25154;-33.684;151.102;2022-08-21T18:59:00;9.77;;;2.33;;
39452;SDS011;25154;-33.684;151.102;2022-08-21T19:04:04;8.70;;;2.10;;
39452;SDS011;25154;-33.684;151.102;2022-08-21T19:09:08;8.23;;;2.97;;
39452;SDS011;25154;-33.684;151.102;2022-08-21T19:14:11;6.95;;;2.08;;
39452;SDS011;25154;-33.684;151.102;2022-08-21T19:19:17;8.85;;;2.50;;
39452;SDS011;25154;-33.684;151.102;2022-08-21T19:24:19;7.32;;;2.85;;
39452;SDS011;25154;-33.684;151.102;2022-08-21T19:29:22;4.50;;;2.10;;
39452;SDS011;25154;-33.684;151.102;2022-08-21T19:34:25;6.30;;;2.20;;
39452;SDS011;25154;-33.684;151.102;2022-08-21T19:39:28;7.63;;;2.88;;
39452;SDS011;25154;-33.684;151.102;2022-08-21T19:44:37;7.13;;;2.72;;
39452;SDS011;25154;-33.684;151.102;2022-08-21T19:49:42;6.72;;;2.10;;
39452;SDS011;25154;-33.684;151.102;2022-08-21T19:54:52;7.53;;;2.45;;
39452;SDS011;25154;-33.684;151.102;2022-08-21T19:59:54;6.32;;;2.50;;
39452;SDS011;25154;-33.684;151.102;2022-08-21T20:04:56;7.60;;;2.50;;
39452;SDS011;25154;-33.684;151.102;2022-08-21T20:09:59;8.60;;;2.58;;
39452;SDS011;25154;-33.684;151.102;2022-08-21T20:15:02;5.97;;;2.38;;
39452;SDS011;25154;-33.684;151.102;2022-08-21T20:20:06;7.40;;;2.92;;
39452;SDS011;25154;-33.684;151.102;2022-08-21T20:25:09;7.38;;;2.42;;
39452;SDS011;25154;-33.684;151.102;2022-08-21T20:30:12;9.85;;;2.60;;
39452;SDS011;25154;-33.684;151.102;2022-08-21T20:35:16;5.25;;;2.30;;
39452;SDS011;25154;-33.684;151.102;2022-08-21T20:40:19;7.47;;;2.10;;
39452;SDS011;25154;-33.684;151.102;2022-08-21T20:45:26;11.45;;;3.25;;
39452;SDS011;25154;-33.684;151.102;2022-08-21T20:50:33;6.78;;;2.78;;
39452;SDS011;25154;-33.684;151.102;2022-08-21T20:55:40;9.35;;;3.00;;
39452;SDS011;25154;-33.684;151.102;2022-08-21T21:00:47;9.73;;;2.50;;
39452;SDS011;25154;-33.684;151.102;2022-08-21T21:05:57;6.15;;;2.40;;
39452;SDS011;25154;-33.684;151.102;2022-08-21T21:16:27;5.25;;;2.20;;
39452;SDS011;25154;-33.684;151.102;2022-08-21T21:27:08;8.68;;;2.75;;
39452;SDS011;25154;-33.684;151.102;2022-08-21T21:32:25;5.75;;;2.28;;
39452;SDS011;25154;-33.684;151.102;2022-08-21T21:37:30;17.67;;;2.88;;
39452;SDS011;25154;-33.684;151.102;2022-08-21T21:42:43;11.80;;;2.70;;
39452;SDS011;25154;-33.684;151.102;2022-08-21T22:09:16;7.32;;;1.80;;
39452;SDS011;25154;-33.684;151.102;2022-08-21T22:14:29;3.27;;;1.57;;
39452;SDS011;25154;-33.684;151.102;2022-08-21T22:19:39;5.25;;;1.77;;
39452;SDS011;25154;-33.684;151.102;2022-08-21T22:24:45;4.47;;;1.50;;
39452;SDS011;25154;-33.684;151.102;2022-08-21T22:29:56;4.75;;;1.50;;
39452;SDS011;25154;-33.684;151.102;2022-08-21T22:35:12;6.38;;;1.60;;
39452;SDS011;25154;-33.684;151.102;2022-08-21T22:40:31;3.25;;;1.35;;
39452;SDS011;25154;-33.684;151.102;2022-08-21T22:45:50;6.63;;;2.35;;
39452;SDS011;25154;-33.684;151.102;2022-08-21T22:51:06;6.60;;;2.00;;
39452;SDS011;25154;-33.684;151.102;2022-08-21T22:56:25;3.10;;;1.30;;
39452;SDS011;25154;-33.684;151.102;2022-08-21T23:01:37;3.08;;;1.30;;
39452;SDS011;25154;-33.684;151.102;2022-08-21T23:06:48;4.45;;;1.40;;
39452;SDS011;25154;-33.684;151.102;2022-08-21T23:11:59;1.52;;;0.90;;
39452;SDS011;25154;-33.684;151.102;2022-08-21T23:17:12;3.10;;;1.33;;
39452;SDS011;25154;-33.684;151.102;2022-08-21T23:22:32;2.63;;;1.20;;
39452;SDS011;25154;-33.684;151.102;2022-08-21T23:28:06;2.35;;;1.15;;
